Nearby METAR Reports

 

KSJC - San Jose, California, USA
Distance from station: NE 9mi, 14km
Updated: Mon, 20-May-2019 4:37am PDT
Mostly cloudy
Mostly cloudy
 Wind from calm
Wind: Calm
Temperature: 48°F , 9°C
Dew Point: 48°F , 9°C
Humidity: 100%
Barometer: 29.92 inHg , 1013.2 hPa
Clouds: Mostly cloudy
Visibility: 10 miles , 16 km
Cloud details: Partly cloudy 800 ft
Mostly cloudy 2600 ft
2019/05/20 11:37 KSJC 201137Z AUTO 00000KT 10SM SCT008 BKN026 09/09 A2992 RMK AO2 T00940094 $
KNUQ - Moffett Nas/Mtn, California, USA
Distance from station: N 9mi, 14km
Updated: Mon, 20-May-2019 4:42am PDT
Mostly cloudy
Mostly cloudy
 Wind from calm
Wind: Calm
Temperature: 48°F , 9°C
Dew Point: 46°F , 8°C
Humidity: 94%
Barometer: 29.93 inHg , 1013.5 hPa
Clouds: Mostly cloudy
Visibility: 10 miles , 16 km
Cloud details: Mostly cloudy 2900 ft
2019/05/20 11:42 KNUQ 201142Z AUTO 00000KT 10SM BKN029 09/08 A2993 RMK AO2 T00940083 $
 
KPAO - Palo Alto, California, USA
Distance from station: NNW 14mi, 23km
Updated: Sun, 19-May-2019 8:47pm PDT
NOT Current
Light rain, Mostly cloudy
Light rain, Mostly cloudy
 Wind from W
Wind: W 6 mph , 9 km/h
Temperature: 55°F , 13°C
Dew Point: 46°F , 8°C
Humidity: 72%
Barometer: 29.88 inHg , 1011.9 hPa
Summary: Light rain
Clouds: Mostly cloudy
Visibility: 10 miles , 16 km
Cloud details: Mostly cloudy 5500 ft
2019/05/20 03:47 KPAO 200347Z 27005KT 10SM -RA BKN055 13/08 A2988 RMK LAST
KRHV - San Jose/Reid, California, USA
Distance from station: ENE 12mi, 19km
Updated: Sun, 19-May-2019 9:50pm PDT
NOT Current
Mostly cloudy
Mostly cloudy
 Wind from calm
Wind: Calm
Temperature: 54°F , 12°C
Dew Point: 50°F , 10°C
Humidity: 88%
Barometer: 29.89 inHg , 1012.2 hPa
Clouds: Mostly cloudy
Visibility: 10 miles , 16 km
Cloud details: Mostly cloudy 5000 ft
2019/05/20 04:50 KRHV 200450Z 00000KT 10SM BKN050 12/10 A2989 RMK LAST
 
KOAK - Oakland, California, USA
Distance from station: NNW 31mi, 50km
Updated: Mon, 20-May-2019 3:53am PDT
Partly cloudy
Partly cloudy
 Wind from NNE
Wind: NNE 3 mph , 6 km/h
Temperature: 52°F , 11°C
Dew Point: 46°F , 8°C
Humidity: 82%
Barometer: 29.92 inHg , 1013.2 hPa
Clouds: Partly cloudy
Visibility: 10 miles , 16 km
Cloud details: Few Clouds 1800 ft
Partly cloudy 2800 ft
2019/05/20 10:53 KOAK 201053Z 02003KT 10SM FEW018 SCT028 11/08 A2992 RMK AO2 SLP131 T01060083
KSQL - San Carlos Airpo, California, USA
Distance from station: NW 21mi, 34km
Updated: Sun, 19-May-2019 8:53pm PDT
NOT Current
Mostly cloudy
Mostly cloudy
 Wind from WSW
Wind: WSW 5 mph , 7 km/h
Temperature: 54°F , 12°C
Dew Point: 48°F , 9°C
Humidity: 82%
Barometer: 29.88 inHg , 1011.9 hPa
Clouds: Mostly cloudy
Visibility: 10 miles , 16 km
Cloud details: Mostly cloudy 5000 ft
Mostly cloudy 8000 ft
2019/05/20 03:53 KSQL 200353Z 25004KT 10SM BKN050 BKN080 12/09 A2988 RMK LAST
 
KSFO - San Francisco, California, USA
Distance from station: NW 30mi, 49km
Updated: Mon, 20-May-2019 3:56am PDT
Partly cloudy
Partly cloudy
 Wind from W
Wind: W 5 mph , 7 km/h
Temperature: 50°F , 10°C
Wind Chill: 48°F , 9°C
Dew Point: 46°F , 8°C
Humidity: 88%
Barometer: 29.91 inHg , 1012.9 hPa
Clouds: Partly cloudy
Visibility: 10 miles , 16 km
Cloud details: Few Clouds 2700 ft
Few Clouds 3400 ft
Partly cloudy 14000 ft
2019/05/20 10:56 KSFO 201056Z 27004KT 10SM FEW027 FEW034 SCT140 10/08 A2991 RMK AO2 SLP128 T01000078
KE16 - San Martin, California, USA
Distance from station: ESE 27mi, 43km
Updated: Sun, 19-May-2019 10:45am PDT
NOT Current
Partly cloudy
Partly cloudy
 Wind from SE
Wind: SE 10 mph , 17 km/h
Temperature: 54°F , 12°C
Dew Point: 50°F , 10°C
Humidity: 88%
Barometer: 29.83 inHg , 1010.2 hPa
Clouds: Partly cloudy
Visibility: 10 miles , 16 km
Cloud details: Few Clouds 4800 ft
Partly cloudy 5500 ft
2019/05/19 17:45 KE16 191745Z AUTO 13009KT 10SM FEW048 SCT055 12/10 A2983 RMK AO2
 
KWVI - Watsonville, California, USA
Distance from station: SSE 27mi, 44km
Updated: Mon, 20-May-2019 4:36am PDT
Partly cloudy
Partly cloudy
 Wind from NNW
Wind: NNW 6 mph , 9 km/h
Temperature: 46°F , 8°C
Wind Chill: 43°F , 6°C
Dew Point: 45°F , 7°C
Humidity: 93%
Barometer: 29.92 inHg , 1013.2 hPa
Clouds: Partly cloudy
Visibility: 10 miles , 16 km
Cloud details: Partly cloudy 600 ft
2019/05/20 11:36 KWVI 201136Z AUTO 33005KT 10SM SCT006 08/07 A2992 RMK AO2 T00780072
KHAF - Half Moon Bay, California, USA
Distance from station: WNW 31mi, 50km
Updated: Mon, 20-May-2019 4:40am PDT
Partly cloudy
Partly cloudy
 Wind from calm
Wind: Calm
Temperature: 46°F , 8°C
Dew Point: 46°F , 8°C
Humidity: 100%
Barometer: 29.93 inHg , 1013.5 hPa
Clouds: Partly cloudy
Visibility: 10 miles , 16 km
Cloud details: Partly cloudy 1900 ft
2019/05/20 11:40 KHAF 201140Z AUTO 00000KT 10SM SCT019 08/08 A2993 RMK AO2
 
KHWD - Hayward, California, USA
Distance from station: N 28mi, 44km
Updated: Mon, 20-May-2019 3:54am PDT
Mostly cloudy
Mostly cloudy
 Wind from NE
Wind: NE 6 mph , 9 km/h
Temperature: 52°F , 11°C
Dew Point: 46°F , 8°C
Humidity: 82%
Barometer: 29.91 inHg , 1012.9 hPa
Clouds: Mostly cloudy
Visibility: 10 miles , 16 km
Cloud details: Mostly cloudy 2400 ft
2019/05/20 10:54 KHWD 201054Z AUTO 05005KT 10SM BKN024 11/08 A2991 RMK AO2 SLP137 T01060083
KLVK - Livermore, California, USA
Distance from station: NNE 31mi, 51km
Updated: Mon, 20-May-2019 4:42am PDT
Overcast
Overcast
 Wind from calm
Wind: Calm
Temperature: 48°F , 9°C
Dew Point: 46°F , 8°C
Humidity: 94%
Barometer: 29.91 inHg , 1012.9 hPa
Clouds: Overcast
Visibility: 7 miles , 11 km
Cloud details: Overcast 400 ft
2019/05/20 11:42 KLVK 201142Z AUTO 00000KT 7SM OVC004 09/08 A2991 RMK AO2 T00890083